sensor_id;sensor_type;location;lat;lon;timestamp;P1;durP1;ratioP1;P2;durP2;ratioP2
43962;SDS011;29622;45.534;9.242;2023-05-20T00:01:02;10.43;;;6.53;;
43962;SDS011;29622;45.534;9.242;2023-05-20T00:06:03;10.88;;;7.53;;
43962;SDS011;29622;45.534;9.242;2023-05-20T00:11:04;9.90;;;6.20;;
43962;SDS011;29622;45.534;9.242;2023-05-20T00:16:05;13.65;;;7.70;;
43962;SDS011;29622;45.534;9.242;2023-05-20T00:21:07;10.13;;;6.50;;
43962;SDS011;29622;45.534;9.242;2023-05-20T00:26:08;10.85;;;6.70;;
43962;SDS011;29622;45.534;9.242;2023-05-20T00:31:09;13.52;;;6.50;;
43962;SDS011;29622;45.534;9.242;2023-05-20T00:36:10;13.52;;;6.88;;
43962;SDS011;29622;45.534;9.242;2023-05-20T00:41:10;13.15;;;6.95;;
43962;SDS011;29622;45.534;9.242;2023-05-20T00:46:11;11.15;;;6.35;;
43962;SDS011;29622;45.534;9.242;2023-05-20T00:51:12;11.48;;;5.80;;
43962;SDS011;29622;45.534;9.242;2023-05-20T00:56:13;9.93;;;5.78;;
43962;SDS011;29622;45.534;9.242;2023-05-20T01:01:14;8.93;;;5.30;;
43962;SDS011;29622;45.534;9.242;2023-05-20T01:06:15;6.95;;;4.53;;
43962;SDS011;29622;45.534;9.242;2023-05-20T01:11:27;11.10;;;5.93;;
43962;SDS011;29622;45.534;9.242;2023-05-20T01:16:34;8.60;;;5.20;;
43962;SDS011;29622;45.534;9.242;2023-05-20T01:21:35;8.70;;;5.22;;
43962;SDS011;29622;45.534;9.242;2023-05-20T01:26:37;8.15;;;4.60;;
43962;SDS011;29622;45.534;9.242;2023-05-20T01:31:38;7.43;;;3.97;;
43962;SDS011;29622;45.534;9.242;2023-05-20T01:36:39;8.10;;;4.57;;
43962;SDS011;29622;45.534;9.242;2023-05-20T01:41:40;9.15;;;5.97;;
43962;SDS011;29622;45.534;9.242;2023-05-20T01:46:42;10.77;;;5.55;;
43962;SDS011;29622;45.534;9.242;2023-05-20T01:51:48;10.90;;;6.10;;
43962;SDS011;29622;45.534;9.242;2023-05-20T01:56:49;8.02;;;5.93;;
43962;SDS011;29622;45.534;9.242;2023-05-20T02:01:50;8.98;;;5.38;;
43962;SDS011;29622;45.534;9.242;2023-05-20T02:06:50;10.07;;;5.10;;
43962;SDS011;29622;45.534;9.242;2023-05-20T02:11:54;7.35;;;3.90;;
43962;SDS011;29622;45.534;9.242;2023-05-20T02:16:54;7.00;;;3.97;;
43962;SDS011;29622;45.534;9.242;2023-05-20T02:21:56;6.88;;;3.08;;
43962;SDS011;29622;45.534;9.242;2023-05-20T02:26:57;4.65;;;2.78;;
43962;SDS011;29622;45.534;9.242;2023-05-20T02:32:01;3.95;;;2.78;;
43962;SDS011;29622;45.534;9.242;2023-05-20T02:37:02;3.72;;;2.38;;
43962;SDS011;29622;45.534;9.242;2023-05-20T02:42:02;6.55;;;2.70;;
43962;SDS011;29622;45.534;9.242;2023-05-20T02:47:03;4.45;;;2.63;;
43962;SDS011;29622;45.534;9.242;2023-05-20T02:52:04;4.60;;;2.58;;
43962;SDS011;29622;45.534;9.242;2023-05-20T02:57:09;13.57;;;2.92;;
43962;SDS011;29622;45.534;9.242;2023-05-20T03:02:09;3.10;;;1.90;;
43962;SDS011;29622;45.534;9.242;2023-05-20T03:07:10;3.97;;;1.95;;
43962;SDS011;29622;45.534;9.242;2023-05-20T03:12:12;3.53;;;1.75;;
43962;SDS011;29622;45.534;9.242;2023-05-20T03:17:13;3.17;;;1.70;;
43962;SDS011;29622;45.534;9.242;2023-05-20T03:22:13;4.00;;;1.33;;
43962;SDS011;29622;45.534;9.242;2023-05-20T03:27:16;7.05;;;1.40;;
43962;SDS011;29622;45.534;9.242;2023-05-20T03:32:17;4.47;;;1.40;;
43962;SDS011;29622;45.534;9.242;2023-05-20T03:37:17;21.65;;;2.33;;
43962;SDS011;29622;45.534;9.242;2023-05-20T03:42:18;3.58;;;1.25;;
43962;SDS011;29622;45.534;9.242;2023-05-20T03:47:19;1.80;;;1.00;;
43962;SDS011;29622;45.534;9.242;2023-05-20T03:52:20;2.90;;;1.38;;
43962;SDS011;29622;45.534;9.242;2023-05-20T03:57:21;2.10;;;1.15;;
43962;SDS011;29622;45.534;9.242;2023-05-20T04:02:22;2.55;;;1.13;;
43962;SDS011;29622;45.534;9.242;2023-05-20T04:07:23;5.13;;;1.45;;
43962;SDS011;29622;45.534;9.242;2023-05-20T04:12:23;5.15;;;1.67;;
43962;SDS011;29622;45.534;9.242;2023-05-20T04:17:29;5.93;;;1.70;;
43962;SDS011;29622;45.534;9.242;2023-05-20T04:22:30;4.43;;;1.83;;
43962;SDS011;29622;45.534;9.242;2023-05-20T04:27:31;4.85;;;2.20;;
43962;SDS011;29622;45.534;9.242;2023-05-20T04:32:36;6.45;;;2.20;;
43962;SDS011;29622;45.534;9.242;2023-05-20T04:37:37;6.18;;;2.47;;
43962;SDS011;29622;45.534;9.242;2023-05-20T04:42:41;11.07;;;3.30;;
43962;SDS011;29622;45.534;9.242;2023-05-20T04:47:44;6.93;;;2.97;;
43962;SDS011;29622;45.534;9.242;2023-05-20T04:52:45;4.93;;;3.08;;
43962;SDS011;29622;45.534;9.242;2023-05-20T04:57:48;7.72;;;4.60;;
43962;SDS011;29622;45.534;9.242;2023-05-20T05:02:49;7.07;;;3.85;;
43962;SDS011;29622;45.534;9.242;2023-05-20T05:07:50;7.03;;;3.97;;
43962;SDS011;29622;45.534;9.242;2023-05-20T05:12:51;6.65;;;4.18;;
43962;SDS011;29622;45.534;9.242;2023-05-20T05:17:52;7.40;;;4.13;;
43962;SDS011;29622;45.534;9.242;2023-05-20T05:22:53;16.35;;;6.35;;
43962;SDS011;29622;45.534;9.242;2023-05-20T05:27:54;8.20;;;4.53;;
43962;SDS011;29622;45.534;9.242;2023-05-20T05:32:56;7.05;;;3.50;;
43962;SDS011;29622;45.534;9.242;2023-05-20T05:37:57;7.65;;;3.00;;
43962;SDS011;29622;45.534;9.242;2023-05-20T05:42:58;7.75;;;2.60;;
43962;SDS011;29622;45.534;9.242;2023-05-20T05:47:58;6.32;;;3.05;;
43962;SDS011;29622;45.534;9.242;2023-05-20T05:52:59;3.05;;;1.85;;
43962;SDS011;29622;45.534;9.242;2023-05-20T05:58:00;5.32;;;3.00;;
43962;SDS011;29622;45.534;9.242;2023-05-20T06:03:03;5.15;;;2.70;;
43962;SDS011;29622;45.534;9.242;2023-05-20T06:08:09;5.47;;;2.65;;
43962;SDS011;29622;45.534;9.242;2023-05-20T06:13:10;6.60;;;3.45;;
43962;SDS011;29622;45.534;9.242;2023-05-20T06:18:11;7.00;;;2.92;;
43962;SDS011;29622;45.534;9.242;2023-05-20T06:23:12;4.05;;;2.50;;
43962;SDS011;29622;45.534;9.242;2023-05-20T06:28:27;4.78;;;2.33;;
43962;SDS011;29622;45.534;9.242;2023-05-20T06:33:28;5.28;;;2.58;;
43962;SDS011;29622;45.534;9.242;2023-05-20T06:38:33;3.20;;;2.00;;
43962;SDS011;29622;45.534;9.242;2023-05-20T06:43:34;4.82;;;3.03;;
43962;SDS011;29622;45.534;9.242;2023-05-20T06:48:53;5.75;;;3.08;;
43962;SDS011;29622;45.534;9.242;2023-05-20T06:53:54;9.60;;;5.13;;
43962;SDS011;29622;45.534;9.242;2023-05-20T06:58:55;6.88;;;3.40;;
43962;SDS011;29622;45.534;9.242;2023-05-20T07:03:56;7.93;;;3.85;;
43962;SDS011;29622;45.534;9.242;2023-05-20T07:08:57;9.85;;;3.17;;
43962;SDS011;29622;45.534;9.242;2023-05-20T07:13:59;9.48;;;3.08;;
43962;SDS011;29622;45.534;9.242;2023-05-20T07:19:04;6.88;;;2.85;;
43962;SDS011;29622;45.534;9.242;2023-05-20T07:24:06;6.53;;;3.22;;
43962;SDS011;29622;45.534;9.242;2023-05-20T07:29:07;14.98;;;5.13;;
43962;SDS011;29622;45.534;9.242;2023-05-20T07:34:09;5.72;;;3.17;;
43962;SDS011;29622;45.534;9.242;2023-05-20T07:39:10;9.57;;;2.92;;
43962;SDS011;29622;45.534;9.242;2023-05-20T07:44:12;11.82;;;4.43;;
43962;SDS011;29622;45.534;9.242;2023-05-20T07:49:17;7.43;;;3.88;;
43962;SDS011;29622;45.534;9.242;2023-05-20T07:54:19;6.55;;;4.00;;
43962;SDS011;29622;45.534;9.242;2023-05-20T07:59:22;4.45;;;1.45;;
43962;SDS011;29622;45.534;9.242;2023-05-20T08:04:24;8.38;;;3.40;;
43962;SDS011;29622;45.534;9.242;2023-05-20T08:09:26;7.00;;;3.80;;
43962;SDS011;29622;45.534;9.242;2023-05-20T08:14:29;3.95;;;2.40;;
43962;SDS011;29622;45.534;9.242;2023-05-20T08:19:31;8.45;;;4.03;;
43962;SDS011;29622;45.534;9.242;2023-05-20T08:24:31;8.00;;;4.63;;
43962;SDS011;29622;45.534;9.242;2023-05-20T08:29:32;4.35;;;2.03;;
43962;SDS011;29622;45.534;9.242;2023-05-20T08:34:33;10.95;;;3.65;;
43962;SDS011;29622;45.534;9.242;2023-05-20T08:39:34;3.70;;;1.70;;
43962;SDS011;29622;45.534;9.242;2023-05-20T08:44:36;15.75;;;6.38;;
43962;SDS011;29622;45.534;9.242;2023-05-20T08:49:37;6.60;;;3.85;;
43962;SDS011;29622;45.534;9.242;2023-05-20T08:54:44;11.18;;;5.88;;
43962;SDS011;29622;45.534;9.242;2023-05-20T08:59:47;14.05;;;5.35;;
43962;SDS011;29622;45.534;9.242;2023-05-20T09:04:48;13.00;;;5.88;;
43962;SDS011;29622;45.534;9.242;2023-05-20T09:09:48;9.77;;;4.80;;
43962;SDS011;29622;45.534;9.242;2023-05-20T09:14:49;7.32;;;4.55;;
43962;SDS011;29622;45.534;9.242;2023-05-20T09:19:49;7.57;;;4.00;;
43962;SDS011;29622;45.534;9.242;2023-05-20T09:24:51;7.63;;;4.07;;
43962;SDS011;29622;45.534;9.242;2023-05-20T09:29:52;13.55;;;5.15;;
43962;SDS011;29622;45.534;9.242;2023-05-20T09:34:53;9.30;;;4.72;;
43962;SDS011;29622;45.534;9.242;2023-05-20T09:39:54;11.38;;;5.03;;
43962;SDS011;29622;45.534;9.242;2023-05-20T09:44:59;15.27;;;5.10;;
43962;SDS011;29622;45.534;9.242;2023-05-20T09:50:04;9.40;;;4.32;;
43962;SDS011;29622;45.534;9.242;2023-05-20T09:55:07;13.55;;;5.53;;
43962;SDS011;29622;45.534;9.242;2023-05-20T10:00:09;9.82;;;5.13;;
43962;SDS011;29622;45.534;9.242;2023-05-20T10:05:23;12.32;;;4.18;;
43962;SDS011;29622;45.534;9.242;2023-05-20T10:10:42;9.55;;;4.50;;
43962;SDS011;29622;45.534;9.242;2023-05-20T10:16:18;9.25;;;4.13;;
43962;SDS011;29622;45.534;9.242;2023-05-20T10:21:41;9.55;;;4.05;;
43962;SDS011;29622;45.534;9.242;2023-05-20T10:26:42;7.63;;;3.95;;
43962;SDS011;29622;45.534;9.242;2023-05-20T10:31:43;6.55;;;3.88;;
43962;SDS011;29622;45.534;9.242;2023-05-20T10:42:07;8.98;;;4.13;;
43962;SDS011;29622;45.534;9.242;2023-05-20T10:47:08;8.75;;;3.35;;
43962;SDS011;29622;45.534;9.242;2023-05-20T10:52:09;5.18;;;2.42;;
43962;SDS011;29622;45.534;9.242;2023-05-20T10:57:10;6.72;;;3.28;;
43962;SDS011;29622;45.534;9.242;2023-05-20T11:02:11;5.38;;;2.90;;
43962;SDS011;29622;45.534;9.242;2023-05-20T11:07:23;7.50;;;3.60;;
43962;SDS011;29622;45.534;9.242;2023-05-20T11:12:27;9.20;;;3.83;;
43962;SDS011;29622;45.534;9.242;2023-05-20T11:17:29;7.35;;;2.80;;
43962;SDS011;29622;45.534;9.242;2023-05-20T11:22:29;7.45;;;2.97;;
43962;SDS011;29622;45.534;9.242;2023-05-20T11:27:30;5.20;;;2.50;;
43962;SDS011;29622;45.534;9.242;2023-05-20T11:32:30;5.72;;;2.08;;
43962;SDS011;29622;45.534;9.242;2023-05-20T11:37:31;4.65;;;2.58;;
43962;SDS011;29622;45.534;9.242;2023-05-20T11:42:32;5.10;;;2.75;;
43962;SDS011;29622;45.534;9.242;2023-05-20T11:47:32;6.13;;;3.20;;
43962;SDS011;29622;45.534;9.242;2023-05-20T11:52:33;7.30;;;2.50;;
43962;SDS011;29622;45.534;9.242;2023-05-20T11:57:34;14.02;;;5.15;;
43962;SDS011;29622;45.534;9.242;2023-05-20T12:02:36;7.07;;;4.22;;
43962;SDS011;29622;45.534;9.242;2023-05-20T12:07:37;9.82;;;4.80;;
43962;SDS011;29622;45.534;9.242;2023-05-20T12:12:38;11.60;;;5.20;;
43962;SDS011;29622;45.534;9.242;2023-05-20T12:17:46;7.00;;;3.63;;
43962;SDS011;29622;45.534;9.242;2023-05-20T12:22:48;5.93;;;3.35;;
43962;SDS011;29622;45.534;9.242;2023-05-20T12:27:50;8.07;;;2.97;;
43962;SDS011;29622;45.534;9.242;2023-05-20T12:32:51;7.32;;;3.13;;
43962;SDS011;29622;45.534;9.242;2023-05-20T12:37:52;5.57;;;2.80;;
43962;SDS011;29622;45.534;9.242;2023-05-20T12:42:53;7.50;;;3.38;;
43962;SDS011;29622;45.534;9.242;2023-05-20T12:47:54;5.72;;;3.20;;
43962;SDS011;29622;45.534;9.242;2023-05-20T12:52:55;5.28;;;2.78;;
43962;SDS011;29622;45.534;9.242;2023-05-20T12:57:56;10.13;;;3.97;;
43962;SDS011;29622;45.534;9.242;2023-05-20T13:02:56;4.88;;;2.72;;
43962;SDS011;29622;45.534;9.242;2023-05-20T13:07:57;7.00;;;2.25;;
43962;SDS011;29622;45.534;9.242;2023-05-20T13:12:58;8.20;;;2.47;;
43962;SDS011;29622;45.534;9.242;2023-05-20T13:17:58;4.07;;;2.38;;
43962;SDS011;29622;45.534;9.242;2023-05-20T13:23:00;3.70;;;1.42;;
43962;SDS011;29622;45.534;9.242;2023-05-20T13:28:01;1.75;;;1.05;;
43962;SDS011;29622;45.534;9.242;2023-05-20T13:33:02;2.33;;;1.40;;
43962;SDS011;29622;45.534;9.242;2023-05-20T13:38:03;2.22;;;1.27;;
43962;SDS011;29622;45.534;9.242;2023-05-20T13:43:03;2.60;;;1.30;;
43962;SDS011;29622;45.534;9.242;2023-05-20T13:48:04;2.67;;;1.45;;
43962;SDS011;29622;45.534;9.242;2023-05-20T13:53:05;4.13;;;2.10;;
43962;SDS011;29622;45.534;9.242;2023-05-20T13:58:06;4.13;;;1.40;;
43962;SDS011;29622;45.534;9.242;2023-05-20T14:03:10;3.50;;;1.75;;
43962;SDS011;29622;45.534;9.242;2023-05-20T14:08:11;3.75;;;1.67;;
43962;SDS011;29622;45.534;9.242;2023-05-20T14:13:12;4.20;;;1.95;;
43962;SDS011;29622;45.534;9.242;2023-05-20T14:18:12;4.15;;;2.05;;
43962;SDS011;29622;45.534;9.242;2023-05-20T14:23:13;3.83;;;1.60;;
43962;SDS011;29622;45.534;9.242;2023-05-20T14:28:13;9.70;;;1.80;;
43962;SDS011;29622;45.534;9.242;2023-05-20T14:33:14;3.97;;;2.15;;
43962;SDS011;29622;45.534;9.242;2023-05-20T14:38:15;7.65;;;1.90;;
43962;SDS011;29622;45.534;9.242;2023-05-20T14:43:17;5.18;;;2.75;;
43962;SDS011;29622;45.534;9.242;2023-05-20T14:48:17;3.72;;;2.17;;
43962;SDS011;29622;45.534;9.242;2023-05-20T14:53:18;10.18;;;3.53;;
43962;SDS011;29622;45.534;9.242;2023-05-20T14:58:19;5.13;;;2.50;;
43962;SDS011;29622;45.534;9.242;2023-05-20T15:03:20;6.53;;;2.88;;
43962;SDS011;29622;45.534;9.242;2023-05-20T15:08:22;6.57;;;3.42;;
43962;SDS011;29622;45.534;9.242;2023-05-20T15:13:23;6.03;;;2.83;;
43962;SDS011;29622;45.534;9.242;2023-05-20T15:18:24;7.05;;;2.25;;
43962;SDS011;29622;45.534;9.242;2023-05-20T15:23:25;5.53;;;2.30;;
43962;SDS011;29622;45.534;9.242;2023-05-20T15:28:25;9.38;;;3.80;;
43962;SDS011;29622;45.534;9.242;2023-05-20T15:33:26;6.80;;;2.95;;
43962;SDS011;29622;45.534;9.242;2023-05-20T15:38:26;5.78;;;3.47;;
43962;SDS011;29622;45.534;9.242;2023-05-20T15:43:27;5.90;;;3.35;;
43962;SDS011;29622;45.534;9.242;2023-05-20T15:48:28;7.25;;;3.67;;
43962;SDS011;29622;45.534;9.242;2023-05-20T15:53:28;9.98;;;4.10;;
43962;SDS011;29622;45.534;9.242;2023-05-20T15:58:29;12.00;;;3.95;;
43962;SDS011;29622;45.534;9.242;2023-05-20T16:03:30;7.45;;;3.72;;
43962;SDS011;29622;45.534;9.242;2023-05-20T16:08:30;8.07;;;3.15;;
43962;SDS011;29622;45.534;9.242;2023-05-20T16:13:33;9.73;;;4.05;;
43962;SDS011;29622;45.534;9.242;2023-05-20T16:18:33;7.15;;;4.00;;
43962;SDS011;29622;45.534;9.242;2023-05-20T16:23:34;8.98;;;5.00;;
43962;SDS011;29622;45.534;9.242;2023-05-20T16:28:35;10.32;;;3.97;;
43962;SDS011;29622;45.534;9.242;2023-05-20T16:33:35;12.65;;;5.43;;
43962;SDS011;29622;45.534;9.242;2023-05-20T16:38:36;7.03;;;4.13;;
43962;SDS011;29622;45.534;9.242;2023-05-20T16:43:37;12.10;;;3.95;;
43962;SDS011;29622;45.534;9.242;2023-05-20T16:48:37;10.23;;;4.07;;
43962;SDS011;29622;45.534;9.242;2023-05-20T16:53:38;7.03;;;3.20;;
43962;SDS011;29622;45.534;9.242;2023-05-20T16:58:39;6.40;;;3.30;;
43962;SDS011;29622;45.534;9.242;2023-05-20T17:03:39;7.88;;;3.75;;
43962;SDS011;29622;45.534;9.242;2023-05-20T17:08:40;5.68;;;3.70;;
43962;SDS011;29622;45.534;9.242;2023-05-20T17:13:41;7.78;;;3.35;;
43962;SDS011;29622;45.534;9.242;2023-05-20T17:18:41;8.45;;;3.90;;
43962;SDS011;29622;45.534;9.242;2023-05-20T17:23:42;11.25;;;4.40;;
43962;SDS011;29622;45.534;9.242;2023-05-20T17:28:43;12.98;;;5.65;;
43962;SDS011;29622;45.534;9.242;2023-05-20T17:33:43;8.55;;;4.95;;
43962;SDS011;29622;45.534;9.242;2023-05-20T17:38:44;11.85;;;6.20;;
43962;SDS011;29622;45.534;9.242;2023-05-20T17:43:45;9.60;;;5.40;;
43962;SDS011;29622;45.534;9.242;2023-05-20T17:48:45;10.70;;;5.75;;
43962;SDS011;29622;45.534;9.242;2023-05-20T17:53:46;10.05;;;5.68;;
43962;SDS011;29622;45.534;9.242;2023-05-20T17:58:47;13.15;;;6.15;;
43962;SDS011;29622;45.534;9.242;2023-05-20T18:03:47;11.65;;;5.68;;
43962;SDS011;29622;45.534;9.242;2023-05-20T18:08:48;15.38;;;7.25;;
43962;SDS011;29622;45.534;9.242;2023-05-20T18:13:48;14.65;;;7.47;;
43962;SDS011;29622;45.534;9.242;2023-05-20T18:18:49;16.55;;;7.95;;
43962;SDS011;29622;45.534;9.242;2023-05-20T18:23:50;10.60;;;6.32;;
43962;SDS011;29622;45.534;9.242;2023-05-20T18:28:51;18.40;;;10.57;;
43962;SDS011;29622;45.534;9.242;2023-05-20T18:33:51;15.02;;;7.10;;
43962;SDS011;29622;45.534;9.242;2023-05-20T18:38:52;16.80;;;7.38;;
43962;SDS011;29622;45.534;9.242;2023-05-20T18:43:52;15.00;;;6.20;;
43962;SDS011;29622;45.534;9.242;2023-05-20T18:48:53;10.60;;;6.72;;
43962;SDS011;29622;45.534;9.242;2023-05-20T18:53:54;14.75;;;6.90;;
43962;SDS011;29622;45.534;9.242;2023-05-20T18:58:54;12.38;;;7.22;;
43962;SDS011;29622;45.534;9.242;2023-05-20T19:03:55;13.80;;;8.05;;
43962;SDS011;29622;45.534;9.242;2023-05-20T19:08:56;11.90;;;6.10;;
43962;SDS011;29622;45.534;9.242;2023-05-20T19:13:57;14.93;;;7.65;;
43962;SDS011;29622;45.534;9.242;2023-05-20T19:18:57;11.57;;;7.53;;
43962;SDS011;29622;45.534;9.242;2023-05-20T19:23:58;14.02;;;7.50;;
43962;SDS011;29622;45.534;9.242;2023-05-20T19:28:59;13.18;;;6.85;;
43962;SDS011;29622;45.534;9.242;2023-05-20T19:33:59;11.85;;;5.55;;
43962;SDS011;29622;45.534;9.242;2023-05-20T19:39:04;18.88;;;6.90;;
43962;SDS011;29622;45.534;9.242;2023-05-20T19:44:08;9.45;;;5.78;;
43962;SDS011;29622;45.534;9.242;2023-05-20T19:49:08;16.63;;;7.60;;
43962;SDS011;29622;45.534;9.242;2023-05-20T19:54:09;15.18;;;7.47;;
43962;SDS011;29622;45.534;9.242;2023-05-20T19:59:10;14.30;;;7.40;;
43962;SDS011;29622;45.534;9.242;2023-05-20T20:04:10;11.52;;;5.97;;
43962;SDS011;29622;45.534;9.242;2023-05-20T20:09:12;12.20;;;6.45;;
43962;SDS011;29622;45.534;9.242;2023-05-20T20:14:12;10.98;;;6.57;;
43962;SDS011;29622;45.534;9.242;2023-05-20T20:19:14;12.02;;;7.10;;
43962;SDS011;29622;45.534;9.242;2023-05-20T20:24:17;11.88;;;5.75;;
43962;SDS011;29622;45.534;9.242;2023-05-20T20:29:20;9.77;;;6.38;;
43962;SDS011;29622;45.534;9.242;2023-05-20T20:34:21;12.00;;;6.50;;
43962;SDS011;29622;45.534;9.242;2023-05-20T20:39:22;9.63;;;6.03;;
43962;SDS011;29622;45.534;9.242;2023-05-20T20:44:24;13.95;;;7.05;;
43962;SDS011;29622;45.534;9.242;2023-05-20T20:49:25;18.42;;;6.68;;
43962;SDS011;29622;45.534;9.242;2023-05-20T20:54:26;14.45;;;6.78;;
43962;SDS011;29622;45.534;9.242;2023-05-20T20:59:27;15.20;;;7.97;;
43962;SDS011;29622;45.534;9.242;2023-05-20T21:04:29;11.27;;;6.97;;
43962;SDS011;29622;45.534;9.242;2023-05-20T21:09:30;10.60;;;6.75;;
43962;SDS011;29622;45.534;9.242;2023-05-20T21:14:30;12.77;;;7.10;;
43962;SDS011;29622;45.534;9.242;2023-05-20T21:19:31;15.07;;;7.60;;
43962;SDS011;29622;45.534;9.242;2023-05-20T21:24:32;12.20;;;6.45;;
43962;SDS011;29622;45.534;9.242;2023-05-20T21:29:35;23.38;;;7.57;;
43962;SDS011;29622;45.534;9.242;2023-05-20T21:34:36;14.05;;;6.35;;
43962;SDS011;29622;45.534;9.242;2023-05-20T21:39:37;12.10;;;5.82;;
43962;SDS011;29622;45.534;9.242;2023-05-20T21:44:37;12.90;;;5.78;;
43962;SDS011;29622;45.534;9.242;2023-05-20T21:49:38;11.10;;;5.47;;
43962;SDS011;29622;45.534;9.242;2023-05-20T21:54:39;11.38;;;6.38;;
43962;SDS011;29622;45.534;9.242;2023-05-20T21:59:40;9.48;;;6.15;;
43962;SDS011;29622;45.534;9.242;2023-05-20T22:04:41;10.48;;;6.00;;
43962;SDS011;29622;45.534;9.242;2023-05-20T22:09:42;12.32;;;5.85;;
43962;SDS011;29622;45.534;9.242;2023-05-20T22:14:43;13.07;;;6.20;;
43962;SDS011;29622;45.534;9.242;2023-05-20T22:19:43;9.90;;;6.03;;
43962;SDS011;29622;45.534;9.242;2023-05-20T22:24:44;11.43;;;6.57;;
43962;SDS011;29622;45.534;9.242;2023-05-20T22:29:45;9.05;;;5.35;;
43962;SDS011;29622;45.534;9.242;2023-05-20T22:34:46;10.73;;;5.00;;
43962;SDS011;29622;45.534;9.242;2023-05-20T22:39:46;12.85;;;5.32;;
43962;SDS011;29622;45.534;9.242;2023-05-20T22:44:47;11.32;;;5.30;;
43962;SDS011;29622;45.534;9.242;2023-05-20T22:49:48;10.45;;;4.55;;
43962;SDS011;29622;45.534;9.242;2023-05-20T22:54:49;9.48;;;5.07;;
43962;SDS011;29622;45.534;9.242;2023-05-20T22:59:50;8.52;;;4.55;;
43962;SDS011;29622;45.534;9.242;2023-05-20T23:04:51;10.02;;;5.10;;
43962;SDS011;29622;45.534;9.242;2023-05-20T23:09:51;10.90;;;4.82;;
43962;SDS011;29622;45.534;9.242;2023-05-20T23:14:52;10.30;;;4.90;;
43962;SDS011;29622;45.534;9.242;2023-05-20T23:19:53;11.00;;;4.93;;
43962;SDS011;29622;45.534;9.242;2023-05-20T23:24:53;11.60;;;5.13;;
43962;SDS011;29622;45.534;9.242;2023-05-20T23:29:54;8.98;;;4.72;;
43962;SDS011;29622;45.534;9.242;2023-05-20T23:34:55;8.48;;;5.10;;
43962;SDS011;29622;45.534;9.242;2023-05-20T23:39:56;7.93;;;4.72;;
43962;SDS011;29622;45.534;9.242;2023-05-20T23:44:56;9.15;;;4.60;;
43962;SDS011;29622;45.534;9.242;2023-05-20T23:49:58;8.40;;;4.45;;
43962;SDS011;29622;45.534;9.242;2023-05-20T23:54:58;5.90;;;4.20;;
43962;SDS011;29622;45.534;9.242;2023-05-20T23:59:59;7.55;;;4.13;;
